Hiller, PA (15444)

10:05 AM EST on February 06, 2016 (GMT -0500)
APRSWXNET | | Change Station
CLOSE
Current Station
Personal Weather Station
Location: Isabella, PA
Elevation: 1122 ft
Nearby Weather Stations

Elev 1122 ft 39.93 °N, 79.95 °W | Updated 40 minutes ago

Clear
Clear
33 °F
Feels Like 33 °F
N
2
Wind Variable Wind from SSW
Gusts 9.0 mph

Today
High -- | Low -- °F
--% Chance of Precip.
Yesterday
High -- | Low -- °F
Precip. -- in
Pressure 30.31 in
Visibility 10.0 miles
Clouds Scattered Clouds 5500 ft
Windchill 33 °F
Dew Point 21 °F
Humidity 61%
Rainfall in
Snow Depth Not available.
7:23 AM 5:44 PM
Waning Crescent, 5% visible
METAR KAFJ 061455Z AUTO 22008KT 10SM SCT055 02/M08 A3031 RMK AO1 54000
Pressure 30.31 in
Visibility 10.0 miles
Clouds Scattered Clouds 5500 ft
Windchill 33 °F
Dew Point 21 °F
Humidity 61%
Rainfall in
Snow Depth Not available.
7:23 AM 5:44 PM
Waning Crescent, 5% visible
METAR KAFJ 061455Z AUTO 22008KT 10SM SCT055 02/M08 A3031 RMK AO1 54000

10-Day Weather Forecast

Almanac

Astronomy

Feb. 06, 2016 Rise Set
Actual Time
Civil Twilight
Nautical Twilight
Astronomical Twilight
Moon
Length of Visible Light
Length of Day
Tomorrow will be .
, % of the Moon is Illuminated

Today's Extremes

State Highs State Lows

Community

WunderPhotos

Upload Photos

1,890,984 photos uploaded!

WunderBlog® & News

Nearby

Air Quality

  Air Quality AQ Index Pollutant
Not available.

Snow Depth

Station Depth Elevation

Earthquake Activity

City Distance Mag. Time & Date
Minimum magnitude displayed is 2.5.

Coastal Water Temperatures

Place Temperature

Stations

Nearby Weather Stations

Station Location Temp. Windchill Dew Point Humidity Wind Precip. Elev Updated Type
                   

Watches & Warnings

There are currently no watches in effect.